createdAt,value
2022-12-04T00:01:37.122Z,21.27
2022-12-04T00:04:03.811Z,22.45
2022-12-04T00:06:30.727Z,20.77
2022-12-04T00:08:57.498Z,22.25
2022-12-04T00:11:27.756Z,22.27
2022-12-04T00:13:55.286Z,21.40
2022-12-04T00:16:25.981Z,21.48
2022-12-04T00:18:53.464Z,20.70
2022-12-04T00:21:20.600Z,21.23
2022-12-04T00:23:47.940Z,21.95
2022-12-04T00:26:17.423Z,20.88
2022-12-04T00:28:44.384Z,20.77
2022-12-04T00:31:14.259Z,23.20
2022-12-04T00:33:41.478Z,21.63
2022-12-04T00:36:11.027Z,20.42
2022-12-04T00:38:38.567Z,19.08
2022-12-04T00:41:05.304Z,21.02
2022-12-04T00:43:32.039Z,19.75
2022-12-04T00:45:59.175Z,20.25
2022-12-04T00:48:26.176Z,20.58
2022-12-04T00:50:54.152Z,20.17
2022-12-04T00:53:21.767Z,20.42
2022-12-04T00:55:48.426Z,19.08
2022-12-04T00:58:15.026Z,19.67
2022-12-04T01:00:42.107Z,18.88
2022-12-04T01:03:09.425Z,18.90
2022-12-04T01:05:45.459Z,18.30
2022-12-04T01:08:12.815Z,17.40
2022-12-04T01:10:41.981Z,17.90
2022-12-04T01:13:09.131Z,17.52
2022-12-04T01:15:43.991Z,18.85
2022-12-04T01:18:11.938Z,19.13
2022-12-04T01:20:38.471Z,18.90
2022-12-04T01:23:05.126Z,19.35
2022-12-04T01:25:32.006Z,19.27
2022-12-04T01:27:58.596Z,19.02
2022-12-04T01:30:25.097Z,19.75
2022-12-04T01:32:51.619Z,19.25
2022-12-04T01:35:18.372Z,19.58
2022-12-04T01:37:44.913Z,19.83
2022-12-04T01:40:16.882Z,19.48
2022-12-04T01:42:43.422Z,19.33
2022-12-04T01:45:36.814Z,20.33
2022-12-04T01:48:19.459Z,19.20
2022-12-04T01:50:48.475Z,20.42
2022-12-04T01:53:15.251Z,20.65
2022-12-04T01:55:43.170Z,20.52
2022-12-04T01:58:10.510Z,20.38
2022-12-04T02:00:37.109Z,20.38
2022-12-04T02:03:03.952Z,20.35
2022-12-04T02:05:30.854Z,20.33
2022-12-04T02:08:01.200Z,20.55
2022-12-04T02:10:42.686Z,21.70
2022-12-04T02:13:37.007Z,21.15
2022-12-04T02:16:24.801Z,20.67
2022-12-04T02:19:03.014Z,20.55
2022-12-04T02:21:43.292Z,20.80
2022-12-04T02:24:12.719Z,21.17
2022-12-04T02:27:01.962Z,20.77
2022-12-04T02:29:45.910Z,21.35
2022-12-04T02:32:24.471Z,20.40
2022-12-04T02:35:06.371Z,22.38
2022-12-04T02:37:40.662Z,21.52
2022-12-04T02:40:07.424Z,21.25
2022-12-04T02:42:42.926Z,22.55
2022-12-04T02:45:17.778Z,22.27
2022-12-04T02:47:46.284Z,21.88
2022-12-04T02:50:16.870Z,22.00
2022-12-04T02:52:48.315Z,22.10
2022-12-04T02:55:20.979Z,22.45
2022-12-04T02:57:52.524Z,20.55
2022-12-04T03:00:19.988Z,22.52
2022-12-04T03:02:59.150Z,22.35
2022-12-04T03:05:47.758Z,22.02
2022-12-04T03:08:19.201Z,22.38
2022-12-04T03:10:51.213Z,22.17
2022-12-04T03:13:29.492Z,22.10
2022-12-04T03:16:06.096Z,22.27
2022-12-04T03:18:39.618Z,21.58
2022-12-04T03:21:15.581Z,22.83
2022-12-04T03:23:50.661Z,22.17
2022-12-04T03:26:28.465Z,23.02
2022-12-04T03:29:04.777Z,22.60
2022-12-04T03:31:49.096Z,22.67
2022-12-04T03:34:25.777Z,23.05
2022-12-04T03:36:57.330Z,22.23
2022-12-04T03:39:34.965Z,23.17
2022-12-04T03:42:21.706Z,21.25
2022-12-04T03:45:11.334Z,21.92
2022-12-04T03:47:46.014Z,21.17
2022-12-04T03:50:35.125Z,22.70
2022-12-04T03:53:17.712Z,21.88
2022-12-04T03:55:54.347Z,21.98
2022-12-04T03:58:28.175Z,22.77
2022-12-04T04:00:56.767Z,22.80
2022-12-04T04:03:29.709Z,21.10
2022-12-04T04:06:02.664Z,22.27
2022-12-04T04:08:34.917Z,22.05
2022-12-04T04:11:17.247Z,22.45
2022-12-04T04:14:11.516Z,22.55
2022-12-04T04:17:03.017Z,21.52
2022-12-04T04:19:53.783Z,21.73
2022-12-04T04:22:41.597Z,22.75
2022-12-04T04:25:13.345Z,21.17
2022-12-04T04:27:39.984Z,21.25
2022-12-04T04:30:09.161Z,21.58
2022-12-04T04:32:44.008Z,23.33
2022-12-04T04:35:25.037Z,22.50
2022-12-04T04:38:01.732Z,23.38
2022-12-04T04:40:37.253Z,22.05
2022-12-04T04:43:11.334Z,21.50
2022-12-04T04:45:48.399Z,20.98
2022-12-04T04:48:31.683Z,21.02
2022-12-04T04:51:00.155Z,22.65
2022-12-04T04:53:34.995Z,22.50
2022-12-04T04:56:02.003Z,23.02
2022-12-04T04:58:28.591Z,21.52
2022-12-04T05:01:03.469Z,20.27
2022-12-04T05:03:31.079Z,21.17
2022-12-04T05:05:57.961Z,21.35
2022-12-04T05:08:24.738Z,19.88
2022-12-04T05:10:51.347Z,20.77
2022-12-04T05:13:18.473Z,20.75
2022-12-04T05:15:45.668Z,22.27
2022-12-04T05:18:12.259Z,21.02
2022-12-04T05:20:40.074Z,20.70
2022-12-04T05:23:07.442Z,21.42
2022-12-04T05:25:33.988Z,21.55
2022-12-04T05:28:00.556Z,21.58
2022-12-04T05:30:27.182Z,22.52
2022-12-04T05:32:53.725Z,21.60
2022-12-04T05:35:20.277Z,21.00
2022-12-04T05:37:47.484Z,21.13
2022-12-04T05:40:14.211Z,21.25
2022-12-04T05:42:40.920Z,21.13
2022-12-04T05:45:08.086Z,21.17
2022-12-04T05:47:42.319Z,22.00
2022-12-04T05:50:10.518Z,21.67
2022-12-04T05:52:37.148Z,20.30
2022-12-04T05:55:04.102Z,21.35
2022-12-04T05:57:30.852Z,22.10
2022-12-04T05:59:57.667Z,22.00
2022-12-04T06:02:24.530Z,20.55
2022-12-04T06:04:51.091Z,22.85
2022-12-04T06:07:17.563Z,21.63
2022-12-04T06:09:44.200Z,21.90
2022-12-04T06:12:11.022Z,21.45
2022-12-04T06:14:39.774Z,21.52
2022-12-04T06:17:07.339Z,21.63
2022-12-04T06:19:34.035Z,21.83
2022-12-04T06:22:00.589Z,20.25
2022-12-04T06:24:27.223Z,22.13
2022-12-04T06:29:45.886Z,21.58
2022-12-04T06:32:16.496Z,20.98
2022-12-04T06:34:53.913Z,21.42
2022-12-04T06:37:22.472Z,21.83
2022-12-04T06:39:49.301Z,20.95
2022-12-04T06:42:16.429Z,22.33
2022-12-04T06:44:42.931Z,21.92
2022-12-04T06:47:09.630Z,22.50
2022-12-04T06:49:36.322Z,22.17
2022-12-04T06:52:03.373Z,21.38
2022-12-04T06:54:29.861Z,22.48
2022-12-04T06:56:56.346Z,22.52
2022-12-04T06:59:22.899Z,22.55
2022-12-04T07:01:49.659Z,22.42
2022-12-04T07:04:16.288Z,23.05
2022-12-04T07:06:42.850Z,24.02
2022-12-04T07:09:17.791Z,22.52
2022-12-04T07:11:45.491Z,22.83
2022-12-04T07:14:13.216Z,22.85
2022-12-04T07:16:42.121Z,23.50
2022-12-04T07:19:13.890Z,23.42
2022-12-04T07:21:41.621Z,23.10
2022-12-04T07:24:15.376Z,23.95
2022-12-04T07:26:41.869Z,23.10
2022-12-04T07:29:10.137Z,23.42
2022-12-04T07:31:36.805Z,25.73
2022-12-04T07:34:03.477Z,23.55
2022-12-04T07:36:29.986Z,23.73
2022-12-04T07:38:57.117Z,22.65
2022-12-04T07:41:24.085Z,22.17
2022-12-04T07:43:50.696Z,23.80
2022-12-04T07:46:22.967Z,22.45
2022-12-04T07:48:49.912Z,23.30
2022-12-04T07:51:21.812Z,23.67
2022-12-04T07:53:50.805Z,24.63
2022-12-04T07:56:18.076Z,24.33
2022-12-04T07:58:44.699Z,24.77
2022-12-04T08:01:14.143Z,23.40
2022-12-04T08:03:47.202Z,23.85
2022-12-04T08:06:14.738Z,23.95
2022-12-04T08:08:41.338Z,22.85
2022-12-04T08:11:09.539Z,23.63
2022-12-04T08:13:36.566Z,24.38
2022-12-04T08:16:08.534Z,23.80
2022-12-04T08:18:35.600Z,23.77
2022-12-04T08:21:07.858Z,26.25
2022-12-04T08:23:35.148Z,23.20
2022-12-04T08:26:02.799Z,23.33
2022-12-04T08:28:29.826Z,25.35
2022-12-04T08:31:02.524Z,24.27
2022-12-04T08:33:29.099Z,24.98
2022-12-04T08:35:55.616Z,24.70
2022-12-04T08:38:22.150Z,24.17
2022-12-04T08:40:48.671Z,23.65
2022-12-04T08:43:15.209Z,25.20
2022-12-04T08:45:41.745Z,23.27
2022-12-04T08:48:08.327Z,25.02
2022-12-04T08:50:34.827Z,24.17
2022-12-04T08:53:01.312Z,24.15
2022-12-04T08:55:27.822Z,24.88
2022-12-04T08:57:54.814Z,24.77
2022-12-04T09:00:21.494Z,23.83
2022-12-04T09:02:51.054Z,25.17
2022-12-04T09:05:17.906Z,23.67
2022-12-04T09:07:44.584Z,24.45
2022-12-04T09:10:11.938Z,24.20
2022-12-04T09:12:38.507Z,23.10
2022-12-04T09:15:05.551Z,24.17
2022-12-04T09:17:32.214Z,23.33
2022-12-04T09:20:01.168Z,24.27
2022-12-04T09:22:40.548Z,24.15
2022-12-04T09:25:14.831Z,23.40
2022-12-04T09:27:41.683Z,23.20
2022-12-04T09:30:10.200Z,22.55
2022-12-04T09:32:37.118Z,23.45
2022-12-04T09:35:05.817Z,22.92
2022-12-04T09:37:33.405Z,23.30
2022-12-04T09:39:59.951Z,22.38
2022-12-04T09:42:49.814Z,23.17
2022-12-04T09:45:22.136Z,22.98
2022-12-04T09:47:51.847Z,22.13
2022-12-04T09:50:35.798Z,23.80
2022-12-04T09:53:06.699Z,21.98
2022-12-04T09:55:38.827Z,22.33
2022-12-04T09:58:10.728Z,21.80
2022-12-04T10:00:41.521Z,22.55
2022-12-04T10:03:15.110Z,23.65
2022-12-04T10:06:00.770Z,23.00
2022-12-04T10:08:35.259Z,23.75
2022-12-04T10:11:16.918Z,22.45
2022-12-04T10:13:55.607Z,22.02
2022-12-04T10:16:28.023Z,21.60
2022-12-04T10:19:12.725Z,22.70
2022-12-04T10:21:53.087Z,22.63
2022-12-04T10:24:43.171Z,22.40
2022-12-04T10:27:18.146Z,20.92
2022-12-04T10:29:49.401Z,21.90
2022-12-04T10:32:23.786Z,21.15
2022-12-04T10:34:54.532Z,22.45
2022-12-04T10:37:22.924Z,21.92
2022-12-04T10:39:58.249Z,22.70
2022-12-04T10:42:46.917Z,22.48
2022-12-04T10:45:13.668Z,22.20
2022-12-04T10:47:48.750Z,21.90
2022-12-04T10:50:19.487Z,21.92
2022-12-04T10:52:46.120Z,21.52
2022-12-04T10:55:13.671Z,21.80
2022-12-04T10:57:45.420Z,20.08
2022-12-04T11:00:32.678Z,21.00
2022-12-04T11:03:02.008Z,20.40
2022-12-04T11:05:33.165Z,21.27
2022-12-04T11:08:03.207Z,20.77
2022-12-04T11:10:39.357Z,21.95
2022-12-04T11:13:17.571Z,22.30
2022-12-04T11:15:46.478Z,21.20
2022-12-04T11:18:28.042Z,20.77
2022-12-04T11:21:14.569Z,21.17
2022-12-04T11:23:49.939Z,21.52
2022-12-04T11:26:29.263Z,20.55
2022-12-04T11:28:58.630Z,22.63
2022-12-04T11:31:25.752Z,23.13
2022-12-04T11:33:57.564Z,22.73
2022-12-04T11:36:40.511Z,28.45
2022-12-04T11:39:13.298Z,22.00
2022-12-04T11:41:40.235Z,23.55
2022-12-04T11:44:21.851Z,21.80
2022-12-04T11:46:53.799Z,21.95
2022-12-04T11:49:23.004Z,22.02
2022-12-04T11:51:53.648Z,27.30
2022-12-04T11:54:38.476Z,21.73
2022-12-04T11:57:30.090Z,22.35
2022-12-04T12:00:11.167Z,23.08
2022-12-04T12:02:51.006Z,22.63
2022-12-04T12:05:20.681Z,21.65
2022-12-04T12:08:31.943Z,21.65
2022-12-04T12:11:18.777Z,22.40
2022-12-04T12:14:02.672Z,23.63
2022-12-04T12:17:03.309Z,22.30
2022-12-04T12:20:00.319Z,21.70
2022-12-04T12:22:43.429Z,21.83
2022-12-04T12:25:33.247Z,23.70
2022-12-04T12:28:05.520Z,22.75
2022-12-04T12:31:12.638Z,23.20
2022-12-04T12:33:51.967Z,23.02
2022-12-04T12:36:21.747Z,24.83
2022-12-04T12:38:58.763Z,22.25
2022-12-04T12:41:32.249Z,21.98
2022-12-04T12:44:11.186Z,23.30
2022-12-04T12:46:48.929Z,24.85
2022-12-04T12:49:47.047Z,27.48
2022-12-04T12:52:45.748Z,31.10
2022-12-04T12:55:24.613Z,23.55
2022-12-04T12:58:15.359Z,24.27
2022-12-04T13:00:58.317Z,21.52
2022-12-04T13:03:54.936Z,21.88
2022-12-04T13:06:29.333Z,24.10
2022-12-04T13:09:16.782Z,22.70
2022-12-04T13:11:49.270Z,22.63
2022-12-04T13:14:16.918Z,21.40
2022-12-04T13:16:46.780Z,22.27
2022-12-04T13:19:18.708Z,23.38
2022-12-04T13:21:55.579Z,23.45
2022-12-04T13:24:59.575Z,22.02
2022-12-04T13:27:43.253Z,22.88
2022-12-04T13:30:21.462Z,22.33
2022-12-04T13:33:15.697Z,22.38
2022-12-04T13:35:58.645Z,22.63
2022-12-04T13:39:02.579Z,23.38
2022-12-04T13:41:35.324Z,22.05
2022-12-04T13:44:07.046Z,21.92
2022-12-04T13:46:36.302Z,23.77
2022-12-04T13:49:22.816Z,23.05
2022-12-04T13:51:49.637Z,24.02
2022-12-04T13:54:16.120Z,27.27
2022-12-04T13:56:48.759Z,22.92
2022-12-04T13:59:27.426Z,21.60
2022-12-04T14:01:57.284Z,25.08
2022-12-04T14:04:26.671Z,22.00
2022-12-04T14:06:56.966Z,23.05
2022-12-04T14:09:38.320Z,23.83
2022-12-04T14:12:08.118Z,21.48
2022-12-04T14:14:52.344Z,24.10
2022-12-04T14:17:25.666Z,21.27
2022-12-04T14:19:55.211Z,23.65
2022-12-04T14:22:29.775Z,23.73
2022-12-04T14:25:07.095Z,21.73
2022-12-04T14:27:42.366Z,21.77
2022-12-04T14:30:17.609Z,23.58
2022-12-04T14:32:46.715Z,23.73
2022-12-04T14:35:16.164Z,33.55
2022-12-04T14:37:52.521Z,22.48
2022-12-04T14:40:27.254Z,22.63
2022-12-04T14:42:54.796Z,21.60
2022-12-04T14:45:41.912Z,21.92
2022-12-04T14:48:24.529Z,22.63
2022-12-04T14:50:58.996Z,22.98
2022-12-04T14:53:35.000Z,22.75
2022-12-04T14:56:35.502Z,23.52
2022-12-04T14:59:13.165Z,24.92
2022-12-04T15:01:39.864Z,22.92
2022-12-04T15:04:32.791Z,23.52
2022-12-04T15:07:00.929Z,23.10
2022-12-04T15:09:46.977Z,29.27
2022-12-04T15:12:34.087Z,28.48
2022-12-04T15:15:19.520Z,24.35
2022-12-04T15:18:02.865Z,21.05
2022-12-04T15:20:39.504Z,22.58
2022-12-04T15:23:06.455Z,28.67
2022-12-04T15:25:49.023Z,24.58
2022-12-04T15:28:24.021Z,21.05
2022-12-04T15:30:54.005Z,22.35
2022-12-04T15:33:24.594Z,22.60
2022-12-04T15:35:55.952Z,22.27
2022-12-04T15:38:23.174Z,31.63
2022-12-04T15:40:58.937Z,26.13
2022-12-04T15:43:38.939Z,26.70
2022-12-04T15:46:13.884Z,23.38
2022-12-04T15:48:43.885Z,22.20
2022-12-04T15:51:16.890Z,23.75
2022-12-04T15:53:45.848Z,22.63
2022-12-04T15:56:21.524Z,23.38
2022-12-04T15:59:02.220Z,22.83
2022-12-04T16:01:38.529Z,21.67
2022-12-04T16:04:05.234Z,23.40
2022-12-04T16:06:33.406Z,23.27
2022-12-04T16:09:12.243Z,23.85
2022-12-04T16:11:40.117Z,22.17
2022-12-04T16:14:12.461Z,22.75
2022-12-04T16:16:43.848Z,21.45
2022-12-04T16:19:46.340Z,23.17
2022-12-04T16:22:20.649Z,21.25
2022-12-04T16:24:47.815Z,22.85
2022-12-04T16:27:20.287Z,23.90
2022-12-04T16:29:47.354Z,23.10
2022-12-04T16:32:17.151Z,21.38
2022-12-04T16:34:43.959Z,23.33
2022-12-04T16:37:18.321Z,22.35
2022-12-04T16:39:45.271Z,22.65
2022-12-04T16:42:18.616Z,27.98
2022-12-04T16:44:45.546Z,24.60
2022-12-04T16:47:13.149Z,22.50
2022-12-04T16:49:40.942Z,22.40
2022-12-04T16:52:07.735Z,21.83
2022-12-04T16:54:34.536Z,22.90
2022-12-04T16:57:01.223Z,23.10
2022-12-04T16:59:27.786Z,21.73
2022-12-04T17:01:54.771Z,23.67
2022-12-04T17:04:21.774Z,25.25
2022-12-04T17:06:48.489Z,23.75
2022-12-04T17:09:15.666Z,23.63
2022-12-04T17:11:42.668Z,23.38
2022-12-04T17:14:09.591Z,24.30
2022-12-04T17:16:38.684Z,23.70
2022-12-04T17:19:05.372Z,23.48
2022-12-04T17:21:32.286Z,22.50
2022-12-04T17:23:58.796Z,22.98
2022-12-04T17:26:25.891Z,28.90
2022-12-04T17:28:52.953Z,25.58
2022-12-04T17:31:23.133Z,23.60
2022-12-04T17:33:50.681Z,22.83
2022-12-04T17:36:21.368Z,22.73
2022-12-04T17:38:48.264Z,22.02
2022-12-04T17:41:15.872Z,24.38
2022-12-04T17:43:43.723Z,23.92
2022-12-04T17:46:15.320Z,22.60
2022-12-04T17:48:42.707Z,24.95
2022-12-04T17:51:15.119Z,25.83
2022-12-04T17:53:42.256Z,23.25
2022-12-04T17:56:17.156Z,25.40
2022-12-04T17:58:44.619Z,25.20
2022-12-04T18:01:23.189Z,23.67
2022-12-04T18:03:52.205Z,21.77
2022-12-04T18:06:27.827Z,22.33
2022-12-04T18:08:54.990Z,21.20
2022-12-04T18:11:23.980Z,21.83
2022-12-04T18:13:55.834Z,28.58
2022-12-04T18:16:22.513Z,22.10
2022-12-04T18:18:50.706Z,23.10
2022-12-04T18:21:17.470Z,21.90
2022-12-04T18:23:46.545Z,23.30
2022-12-04T18:26:22.379Z,23.08
2022-12-04T18:28:50.101Z,24.70
2022-12-04T18:31:19.582Z,26.17
2022-12-04T18:33:46.794Z,24.75
2022-12-04T18:36:16.467Z,22.50
2022-12-04T18:38:43.779Z,24.98
2022-12-04T18:41:12.486Z,26.90
2022-12-04T18:43:43.988Z,23.27
2022-12-04T18:46:15.936Z,22.85
2022-12-04T18:48:43.897Z,20.92
2022-12-04T18:51:14.433Z,21.98
2022-12-04T18:53:41.032Z,21.73
2022-12-04T18:56:07.637Z,21.42
2022-12-04T18:58:34.411Z,20.98
2022-12-04T19:01:09.904Z,24.08
2022-12-04T19:03:36.587Z,21.05
2022-12-04T19:06:03.615Z,20.63
2022-12-04T19:08:34.221Z,21.35
2022-12-04T19:11:14.105Z,23.52
2022-12-04T19:13:41.719Z,22.10
2022-12-04T19:16:13.287Z,20.15
2022-12-04T19:18:40.307Z,24.10
2022-12-04T19:21:08.126Z,26.35
2022-12-04T19:23:35.101Z,22.83
2022-12-04T19:26:03.388Z,23.00
2022-12-04T19:28:30.386Z,21.85
2022-12-04T19:30:57.460Z,22.92
2022-12-04T19:33:24.875Z,20.75
2022-12-04T19:36:03.159Z,22.33
2022-12-04T19:38:31.139Z,26.25
2022-12-04T19:41:10.286Z,21.45
2022-12-04T19:43:42.052Z,20.50
2022-12-04T19:46:11.014Z,26.63
2022-12-04T19:48:37.917Z,22.88
2022-12-04T19:51:10.541Z,21.13
2022-12-04T19:53:40.940Z,21.23
2022-12-04T19:56:14.230Z,21.95
2022-12-04T19:58:41.455Z,21.02
2022-12-04T20:01:11.183Z,22.65
2022-12-04T20:03:37.814Z,21.10
2022-12-04T20:06:25.952Z,26.13
2022-12-04T20:08:58.210Z,21.90
2022-12-04T20:11:25.662Z,25.15
2022-12-04T20:13:55.508Z,20.45
2022-12-04T20:16:24.035Z,22.23
2022-12-04T20:18:51.166Z,20.15
2022-12-04T20:21:17.855Z,22.95
2022-12-04T20:23:49.293Z,20.48
2022-12-04T20:26:22.087Z,21.10
2022-12-04T20:28:49.064Z,19.40
2022-12-04T20:31:20.479Z,21.90
2022-12-04T20:33:49.443Z,21.30
2022-12-04T20:36:18.787Z,22.35
2022-12-04T20:38:45.832Z,21.25
2022-12-04T20:41:16.037Z,20.52
2022-12-04T20:43:43.440Z,23.35
2022-12-04T20:46:33.496Z,21.65
2022-12-04T20:49:01.853Z,21.30
2022-12-04T20:51:31.279Z,20.20
2022-12-04T20:53:59.671Z,21.65
2022-12-04T20:56:31.240Z,23.77
2022-12-04T20:58:59.243Z,21.55
2022-12-04T21:01:26.555Z,20.42
2022-12-04T21:03:53.551Z,19.88
2022-12-04T21:06:23.907Z,19.63
2022-12-04T21:08:54.052Z,20.65
2022-12-04T21:11:34.466Z,22.10
2022-12-04T21:14:22.028Z,19.58
2022-12-04T21:16:48.802Z,18.00
2022-12-04T21:19:18.196Z,19.40
2022-12-04T21:21:45.408Z,19.00
2022-12-04T21:24:15.752Z,19.48
2022-12-04T21:26:42.432Z,19.33
2022-12-04T21:29:09.507Z,19.85
2022-12-04T21:31:37.201Z,19.10
2022-12-04T21:34:06.200Z,18.90
2022-12-04T21:36:36.062Z,18.17
2022-12-04T21:39:04.668Z,18.05
2022-12-04T21:42:06.559Z,17.25
2022-12-04T21:44:33.170Z,17.92
2022-12-04T21:46:59.940Z,18.30
2022-12-04T21:49:26.962Z,16.92
2022-12-04T21:51:58.033Z,16.65
2022-12-04T21:54:26.388Z,17.50
2022-12-04T21:56:53.014Z,17.58
2022-12-04T21:59:19.774Z,18.70
2022-12-04T22:01:46.525Z,17.73
2022-12-04T22:04:13.188Z,17.80
2022-12-04T22:06:39.857Z,18.27
2022-12-04T22:09:08.391Z,17.73
2022-12-04T22:11:35.644Z,18.88
2022-12-04T22:14:02.567Z,17.92
2022-12-04T22:16:30.977Z,18.58
2022-12-04T22:18:59.371Z,19.60
2022-12-04T22:21:27.380Z,18.35
2022-12-04T22:23:58.115Z,19.35
2022-12-04T22:26:25.256Z,18.52
2022-12-04T22:28:52.283Z,18.85
2022-12-04T22:31:21.543Z,18.20
2022-12-04T22:33:50.844Z,19.70
2022-12-04T22:36:27.553Z,17.00
2022-12-04T22:39:09.439Z,17.90
2022-12-04T22:41:37.479Z,18.33
2022-12-04T22:44:04.754Z,18.90
2022-12-04T22:46:31.886Z,18.27
2022-12-04T22:48:59.059Z,18.05
2022-12-04T22:51:27.310Z,17.73
2022-12-04T22:53:57.480Z,18.90
2022-12-04T22:56:32.106Z,19.15
2022-12-04T22:58:59.891Z,18.88
2022-12-04T23:01:32.193Z,18.50
2022-12-04T23:03:59.648Z,18.02
2022-12-04T23:06:28.428Z,17.90
2022-12-04T23:08:57.399Z,18.70
2022-12-04T23:11:25.022Z,17.83
2022-12-04T23:13:57.716Z,17.75
2022-12-04T23:16:25.266Z,18.45
2022-12-04T23:18:52.365Z,17.52
2022-12-04T23:21:21.420Z,17.23
2022-12-04T23:23:49.587Z,17.35
2022-12-04T23:26:19.295Z,16.83
2022-12-04T23:28:46.561Z,17.83
2022-12-04T23:31:13.676Z,17.17
2022-12-04T23:33:41.710Z,18.33
2022-12-04T23:36:10.470Z,18.58
2022-12-04T23:38:38.755Z,17.42
2022-12-04T23:41:16.459Z,16.02
2022-12-04T23:43:43.640Z,18.95
2022-12-04T23:46:12.019Z,17.02
2022-12-04T23:48:40.120Z,17.73
2022-12-04T23:51:07.529Z,16.45
2022-12-04T23:53:34.384Z,17.02
2022-12-04T23:56:06.411Z,16.23
2022-12-04T23:58:33.811Z,17.25
